Time;durP1;ratioP1;P1;durP2;ratioP2;P2;SDS_P1;SDS_P2;PMS_P1;PMS_P2;Temp;Humidity;BMP_temperature;BMP_pressure;BME280_temperature;BME280_humidity;BME280_pressure;Samples;Min_cycle;Max_cycle;Signal;HPM_P1;HPM_P2
2021/06/28 00:00:42;;;;;;;1.52;1.30;;;;;;;21.97;70.77;98510.88;4834553;28;104237;-71
2021/06/28 00:03:10;;;;;;;1.80;1.70;;;;;;;21.98;71.10;98510.66;4848774;28;105085;-72
2021/06/28 00:05:39;;;;;;;1.30;1.20;;;;;;;22.00;70.97;98505.13;4855088;28;102652;-71
2021/06/28 00:08:07;;;;;;;1.40;1.30;;;;;;;22.07;70.49;98506.00;4836360;28;104734;-71
2021/06/28 00:10:37;;;;;;;1.40;1.30;;;;;;;22.02;69.68;98509.28;4861121;28;104461;-71
2021/06/28 00:13:06;;;;;;;1.95;1.42;;;;;;;22.11;69.82;98501.94;4862666;28;103749;-71
2021/06/28 00:15:37;;;;;;;1.45;1.35;;;;;;;22.04;70.54;98491.09;4843811;28;105420;-72
2021/06/28 00:18:08;;;;;;;1.70;1.60;;;;;;;22.00;70.82;98489.81;4859053;28;102935;-71
2021/06/28 00:20:36;;;;;;;1.73;1.30;;;;;;;21.94;71.40;98495.94;4833386;28;103824;-72
2021/06/28 00:23:05;;;;;;;2.75;1.30;;;;;;;21.91;72.03;98497.16;4852508;28;103692;-71
2021/06/28 00:25:33;;;;;;;1.75;1.50;;;;;;;21.82;73.28;98502.78;4854936;28;102628;-71
2021/06/28 00:28:03;;;;;;;1.50;1.40;;;;;;;21.75;74.15;98507.25;4840957;28;103165;-71
2021/06/28 00:30:36;;;;;;;1.65;1.55;;;;;;;21.77;74.46;98510.56;4852495;28;103326;-71
2021/06/28 00:33:05;;;;;;;2.45;1.40;;;;;;;21.60;74.83;98509.91;4854449;28;105331;-71
2021/06/28 00:35:33;;;;;;;2.08;1.40;;;;;;;21.45;76.45;98506.38;4855012;28;102641;-71
2021/06/28 00:38:02;;;;;;;1.55;1.45;;;;;;;21.50;76.26;98512.03;4862593;28;103350;-71
2021/06/28 00:40:30;;;;;;;1.73;1.63;;;;;;;21.54;75.64;98507.97;4864241;28;105184;-71
2021/06/28 00:42:58;;;;;;;1.50;1.20;;;;;;;21.67;75.51;98515.41;4864764;28;104597;-71
2021/06/28 00:45:29;;;;;;;1.50;1.38;;;;;;;21.69;75.22;98518.72;4857008;28;102627;-72
2021/06/28 00:48:01;;;;;;;1.65;1.30;;;;;;;21.71;75.78;98516.69;4852189;28;103064;-71
2021/06/28 00:50:31;;;;;;;1.38;1.10;;;;;;;21.78;75.29;98501.50;4848020;28;105338;-71
2021/06/28 00:53:02;;;;;;;1.38;1.27;;;;;;;21.71;75.62;98501.41;4842047;28;103665;-71
2021/06/28 00:55:31;;;;;;;1.42;1.30;;;;;;;21.70;75.24;98488.13;4842602;28;103160;-71
2021/06/28 00:58:00;;;;;;;1.42;1.33;;;;;;;21.67;75.71;98488.53;4861419;28;102762;-71
2021/06/28 01:00:30;;;;;;;1.23;1.13;;;;;;;21.65;75.33;98486.00;4843458;28;103569;-71
2021/06/28 01:02:58;;;;;;;1.30;1.20;;;;;;;21.69;74.99;98479.25;4832805;28;104223;-71
2021/06/28 01:05:30;;;;;;;1.60;1.50;;;;;;;21.72;75.22;98475.34;4848465;28;104142;-71
2021/06/28 01:07:59;;;;;;;1.30;1.20;;;;;;;21.72;74.87;98468.13;4857701;28;103126;-71
2021/06/28 01:10:28;;;;;;;1.70;1.10;;;;;;;21.64;75.63;98464.69;4839985;28;104188;-71
2021/06/28 01:12:56;;;;;;;1.50;1.40;;;;;;;21.69;76.12;98467.66;4864455;28;104536;-71
2021/06/28 01:15:25;;;;;;;2.28;1.30;;;;;;;21.63;76.13;98476.47;4844456;28;103828;-71
2021/06/28 01:17:54;;;;;;;1.60;1.42;;;;;;;21.42;77.31;98479.06;4846361;28;103067;-71
2021/06/28 01:20:24;;;;;;;1.73;1.48;;;;;;;21.49;77.64;98466.53;4840055;28;104056;-71
2021/06/28 01:22:55;;;;;;;2.03;1.80;;;;;;;21.46;77.85;98472.28;4848029;28;103728;-71
2021/06/28 01:25:26;;;;;;;1.40;1.30;;;;;;;21.40;77.88;98465.78;4854351;28;103886;-71
2021/06/28 01:27:54;;;;;;;1.67;1.58;;;;;;;21.42;78.08;98462.94;4862245;28;103201;-71
2021/06/28 01:30:26;;;;;;;2.90;1.77;;;;;;;21.32;78.67;98465.88;4850587;28;104266;-71
2021/06/28 01:32:55;;;;;;;1.95;1.60;;;;;;;21.24;79.14;98464.13;4849041;28;103909;-71
2021/06/28 01:35:23;;;;;;;1.60;1.50;;;;;;;21.03;80.87;98473.84;4840850;28;103016;-71
2021/06/28 01:37:52;;;;;;;1.42;1.30;;;;;;;21.19;80.17;98471.88;4856683;28;102879;-71
2021/06/28 01:40:20;;;;;;;3.15;1.90;;;;;;;21.06;80.93;98460.91;4839899;28;103923;-71
2021/06/28 01:42:50;;;;;;;2.13;2.03;;;;;;;20.41;85.21;98468.66;4846428;28;103728;-71
2021/06/28 01:45:21;;;;;;;2.20;2.10;;;;;;;20.28;85.92;98459.53;4848613;28;104362;-71
2021/06/28 01:47:50;;;;;;;2.20;2.00;;;;;;;20.47;85.04;98454.53;4853535;28;103119;-71
2021/06/28 01:50:19;;;;;;;3.13;2.05;;;;;;;20.43;85.41;98455.94;4854055;28;103465;-71
2021/06/28 01:52:47;;;;;;;2.40;2.20;;;;;;;20.48;85.13;98452.69;4835675;28;104807;-71
2021/06/28 01:55:17;;;;;;;3.25;2.80;;;;;;;20.49;84.97;98454.38;4851359;28;102657;-71
2021/06/28 01:57:46;;;;;;;2.20;2.10;;;;;;;20.72;83.66;98444.44;4866747;28;103322;-71
2021/06/28 02:00:19;;;;;;;2.97;2.20;;;;;;;20.71;84.38;98457.06;4859094;28;104982;-71
2021/06/28 02:02:57;;;;;;;4.72;2.58;;;;;;;20.58;85.22;98470.22;4836351;28;103711;-71
2021/06/28 02:05:26;;;;;;;5.68;2.47;;;;;;;20.17;87.83;98466.13;4863653;28;103223;-71
2021/06/28 02:07:54;;;;;;;3.20;2.33;;;;;;;19.82;90.69;98467.47;4854080;28;103144;-71
2021/06/28 02:10:23;;;;;;;2.70;2.30;;;;;;;19.90;90.04;98464.72;4841216;28;104648;-72
2021/06/28 02:12:51;;;;;;;3.15;2.47;;;;;;;20.03;89.09;98465.03;4857959;28;103558;-71
2021/06/28 02:15:22;;;;;;;2.45;2.25;;;;;;;20.21;88.37;98468.25;4853450;28;102934;-71
2021/06/28 02:17:51;;;;;;;2.65;2.15;;;;;;;20.31;87.99;98453.81;4857371;28;105383;-71
2021/06/28 02:20:20;;;;;;;3.83;2.50;;;;;;;20.39;87.81;98459.97;4841269;28;104001;-71
2021/06/28 02:22:49;;;;;;;3.17;2.20;;;;;;;19.98;89.99;98440.59;4857525;28;104335;-71
2021/06/28 02:25:18;;;;;;;2.38;2.13;;;;;;;19.90;92.23;98435.25;4855039;28;102842;-71
2021/06/28 02:27:47;;;;;;;3.20;2.67;;;;;;;19.82;92.78;98440.66;4859748;28;102960;-71
2021/06/28 02:30:17;;;;;;;3.58;2.50;;;;;;;19.84;92.97;98444.00;4848593;28;103929;-71
2021/06/28 02:32:47;;;;;;;2.85;2.47;;;;;;;19.89;92.44;98441.63;4857866;28;106528;-72
2021/06/28 02:35:15;;;;;;;2.45;2.10;;;;;;;19.97;91.41;98449.63;4864488;28;102811;-71
2021/06/28 02:37:43;;;;;;;1.95;1.85;;;;;;;20.28;89.25;98456.84;4833339;28;103268;-71
2021/06/28 02:40:13;;;;;;;2.13;1.85;;;;;;;20.45;88.59;98448.53;4844298;28;103953;-71
2021/06/28 02:42:41;;;;;;;1.65;1.55;;;;;;;20.61;87.71;98472.53;4855367;28;103740;-71
2021/06/28 02:45:10;;;;;;;2.95;2.72;;;;;;;20.44;88.51;98472.81;4847259;28;103417;-72
2021/06/28 02:47:39;;;;;;;2.50;2.00;;;;;;;20.32;89.63;98479.63;4859238;28;102784;-71
2021/06/28 02:50:11;;;;;;;2.38;2.20;;;;;;;20.47;88.73;98480.53;4860064;28;104815;-71
2021/06/28 02:52:39;;;;;;;3.28;2.58;;;;;;;20.60;87.64;98484.28;4859147;28;103836;-71
2021/06/28 02:55:11;;;;;;;2.28;2.08;;;;;;;20.60;87.85;98483.47;4853312;28;102685;-71
2021/06/28 02:57:40;;;;;;;1.98;1.88;;;;;;;20.66;87.08;98482.75;4861804;28;102799;-71
2021/06/28 03:00:11;;;;;;;1.50;1.40;;;;;;;20.73;86.77;98486.38;4840888;29;104041;-71
2021/06/28 03:02:40;;;;;;;2.40;2.20;;;;;;;20.62;87.29;98486.81;4843746;28;105677;-71
2021/06/28 03:05:11;;;;;;;3.88;2.20;;;;;;;20.64;87.26;98490.97;4861161;28;103076;-71
2021/06/28 03:07:40;;;;;;;3.33;1.80;;;;;;;20.68;86.57;98492.28;4855054;28;103235;-71
2021/06/28 03:10:10;;;;;;;1.80;1.70;;;;;;;20.73;86.40;98486.38;4857928;28;105013;-71
2021/06/28 03:12:39;;;;;;;2.28;2.05;;;;;;;20.59;86.99;98482.63;4867072;28;103866;-71
2021/06/28 03:15:10;;;;;;;3.08;1.80;;;;;;;20.55;87.10;98489.34;4840063;28;103277;-71
2021/06/28 03:17:39;;;;;;;3.47;2.28;;;;;;;20.61;86.70;98490.50;4845992;28;102641;-73
2021/06/28 03:20:11;;;;;;;2.95;2.15;;;;;;;20.71;85.96;98493.78;4858520;28;103949;-73
2021/06/28 03:22:40;;;;;;;1.60;1.50;;;;;;;20.76;86.01;98504.81;4852978;28;103499;-73
2021/06/28 03:25:10;;;;;;;1.90;1.80;;;;;;;20.77;86.40;98506.50;4856436;28;103063;-73
2021/06/28 03:27:39;;;;;;;1.70;1.60;;;;;;;20.81;86.23;98507.78;4863772;28;103076;-73
2021/06/28 03:30:09;;;;;;;1.52;1.42;;;;;;;20.85;85.55;98501.06;4856968;28;103362;-73
2021/06/28 03:32:37;;;;;;;1.80;1.70;;;;;;;20.86;85.62;98494.66;4864523;28;103076;-73
2021/06/28 03:35:06;;;;;;;1.95;1.40;;;;;;;20.80;85.20;98490.84;4842960;29;102688;-75
2021/06/28 03:37:36;;;;;;;1.42;1.33;;;;;;;20.85;85.03;98484.94;4859844;28;104434;-78
2021/06/28 03:40:07;;;;;;;1.40;1.30;;;;;;;20.88;84.68;98468.47;4854239;28;103420;-79
2021/06/28 03:42:35;;;;;;;1.77;1.67;;;;;;;20.91;84.76;98475.34;4842332;28;103776;-74
2021/06/28 03:45:04;;;;;;;2.28;1.88;;;;;;;20.79;85.53;98469.56;4857415;28;103169;-73
2021/06/28 03:47:32;;;;;;;2.67;2.05;;;;;;;20.78;84.80;98455.28;4860310;28;102940;-74
2021/06/28 03:50:00;;;;;;;2.30;2.10;;;;;;;20.78;85.09;98441.03;4855034;28;103331;-73
2021/06/28 03:52:28;;;;;;;2.13;1.92;;;;;;;20.60;86.46;98424.44;4852834;28;103881;-74
2021/06/28 03:54:58;;;;;;;3.15;2.30;;;;;;;20.51;88.38;98426.34;4841843;28;103140;-75
2021/06/28 03:57:26;;;;;;;4.40;2.40;;;;;;;20.41;88.97;98436.47;4865444;28;102981;-75
2021/06/28 03:59:54;;;;;;;1.83;1.73;;;;;;;20.57;87.94;98435.53;4849353;28;103578;-75
2021/06/28 04:02:21;;;;;;;2.00;1.90;;;;;;;20.62;89.02;98438.50;4819011;29;104787;-75
2021/06/28 04:04:49;;;;;;;1.77;1.67;;;;;;;20.64;88.03;98441.81;4843435;28;102644;-74
2021/06/28 04:07:17;;;;;;;2.50;2.10;;;;;;;20.71;89.77;98458.88;4836549;28;102803;-74
2021/06/28 04:09:46;;;;;;;3.92;2.75;;;;;;;20.48;91.45;98463.41;4857782;28;103802;-75
2021/06/28 04:12:15;;;;;;;2.63;2.42;;;;;;;20.48;90.89;98452.69;4853642;28;103701;-74
2021/06/28 04:14:43;;;;;;;2.35;2.15;;;;;;;20.60;90.00;98459.31;4857612;28;103137;-76
2021/06/28 04:17:11;;;;;;;2.00;1.90;;;;;;;20.74;88.92;98458.53;4839172;28;103264;-76
2021/06/28 04:19:39;;;;;;;5.05;2.20;;;;;;;20.81;88.92;98462.16;4849072;28;105160;-76
2021/06/28 04:22:08;;;;;;;3.40;2.80;;;;;;;20.54;90.73;98449.28;4848302;28;103754;-77
2021/06/28 04:24:35;;;;;;;2.00;1.90;;;;;;;20.49;90.78;98460.53;4839524;28;103044;-77
2021/06/28 04:27:04;;;;;;;2.05;1.95;;;;;;;20.67;89.85;98462.94;4837210;28;104671;-82
2021/06/28 04:29:33;;;;;;;2.80;2.60;;;;;;;20.64;89.91;98457.94;4838385;28;103831;-81
2021/06/28 04:32:01;;;;;;;2.17;1.98;;;;;;;20.57;90.14;98451.63;4832280;28;104523;-80
2021/06/28 04:34:29;;;;;;;2.88;2.67;;;;;;;20.52;91.10;98449.47;4863997;28;103275;-77
2021/06/28 04:36:57;;;;;;;4.15;3.28;;;;;;;20.29;93.33;98442.44;4828219;28;104564;-81
2021/06/28 04:39:25;;;;;;;5.47;2.95;;;;;;;19.89;96.50;98436.28;4833033;28;103997;-78
2021/06/28 04:41:53;;;;;;;3.53;3.22;;;;;;;19.65;98.09;98441.72;4822536;28;105165;-78
2021/06/28 04:44:21;;;;;;;3.85;3.35;;;;;;;19.73;97.69;98436.38;4809947;28;104619;-79
2021/06/28 04:46:51;;;;;;;3.75;3.15;;;;;;;19.89;96.88;98441.63;4827157;28;104319;-78
2021/06/28 04:49:19;;;;;;;2.55;2.35;;;;;;;19.99;96.02;98444.91;4824928;28;104728;-81
2021/06/28 04:51:47;;;;;;;2.22;2.03;;;;;;;20.35;93.20;98453.28;4824192;28;104017;-78
2021/06/28 04:54:15;;;;;;;2.00;1.90;;;;;;;20.61;91.56;98455.59;4807096;28;103976;-81
2021/06/28 04:56:43;;;;;;;1.75;1.65;;;;;;;20.75;90.76;98455.66;4791519;29;103784;-79
2021/06/28 04:59:10;;;;;;;4.07;2.92;;;;;;;20.83;91.09;98458.25;4833591;28;104605;-76
2021/06/28 05:01:38;;;;;;;5.78;2.85;;;;;;;20.70;92.13;98462.59;4815195;28;105439;-76
2021/06/28 05:04:08;;;;;;;2.83;2.63;;;;;;;20.65;92.33;98462.28;4824324;28;107461;-76
2021/06/28 05:06:36;;;;;;;2.42;2.22;;;;;;;20.58;93.03;98461.31;4818594;28;104001;-76
2021/06/28 05:09:04;;;;;;;2.20;2.00;;;;;;;20.68;92.24;98467.31;4842636;28;111501;-77
2021/06/28 05:11:32;;;;;;;2.72;2.53;;;;;;;20.69;92.00;98466.25;4845605;28;104672;-76
2021/06/28 05:14:00;;;;;;;2.20;2.10;;;;;;;20.81;91.64;98472.88;4820465;28;103324;-76
2021/06/28 05:16:28;;;;;;;2.47;2.13;;;;;;;20.94;90.86;98465.03;4817777;28;104067;-76
2021/06/28 05:18:57;;;;;;;2.10;2.00;;;;;;;21.12;88.85;98462.91;4821616;28;105261;-77
2021/06/28 05:21:26;;;;;;;3.40;2.65;;;;;;;21.23;88.10;98465.13;4826233;28;104995;-76
2021/06/28 05:23:54;;;;;;;2.33;2.05;;;;;;;21.36;87.02;98459.94;4855497;28;103869;-76
2021/06/28 05:26:22;;;;;;;2.20;2.10;;;;;;;21.46;86.83;98470.44;4823780;28;105406;-76
2021/06/28 05:28:50;;;;;;;2.75;2.45;;;;;;;21.64;86.36;98467.38;4824631;28;104492;-76
2021/06/28 05:31:18;;;;;;;3.25;2.95;;;;;;;21.53;86.66;98475.91;4828779;28;103274;-75
2021/06/28 05:33:46;;;;;;;4.57;4.00;;;;;;;21.53;86.41;98470.53;4829455;28;103826;-75
2021/06/28 05:36:14;;;;;;;3.53;3.25;;;;;;;21.74;84.86;98463.38;4810468;29;104519;-75
2021/06/28 05:38:43;;;;;;;2.60;2.40;;;;;;;21.93;84.45;98468.22;4827198;28;106305;-82
2021/06/28 05:41:11;;;;;;;2.60;2.40;;;;;;;22.00;83.54;98468.31;4850399;28;104327;-84
2021/06/28 05:43:39;;;;;;;2.78;2.58;;;;;;;21.84;84.24;98458.53;4845831;28;105641;-79
2021/06/28 05:46:07;;;;;;;2.28;2.03;;;;;;;21.88;83.72;98459.88;4814494;28;104098;-78
2021/06/28 05:48:35;;;;;;;2.13;1.95;;;;;;;22.06;82.78;98454.09;4827154;28;103357;-78
2021/06/28 05:51:03;;;;;;;2.10;1.90;;;;;;;22.21;82.62;98464.81;4815151;28;103800;-76
2021/06/28 05:53:32;;;;;;;2.40;2.20;;;;;;;22.25;81.78;98460.72;4823585;28;103679;-76
2021/06/28 05:56:02;;;;;;;2.40;2.20;;;;;;;22.55;81.20;98459.59;4830886;28;103462;-74
2021/06/28 05:58:31;;;;;;;4.07;2.78;;;;;;;22.53;79.89;98459.78;4820809;28;104435;-77
2021/06/28 06:00:59;;;;;;;3.35;2.50;;;;;;;22.74;78.02;98460.81;4830128;28;105571;-77
2021/06/28 06:03:28;;;;;;;2.40;2.08;;;;;;;22.98;77.58;98455.03;4835199;28;103595;-76
2021/06/28 06:05:56;;;;;;;2.75;2.10;;;;;;;23.09;76.51;98455.34;4832935;28;104053;-75
2021/06/28 06:08:24;;;;;;;2.10;2.00;;;;;;;23.09;76.58;98459.88;4828441;28;105350;-73
2021/06/28 06:10:54;;;;;;;2.08;1.88;;;;;;;23.08;75.93;98444.75;4832470;28;104609;-75
2021/06/28 06:13:24;;;;;;;2.20;2.10;;;;;;;23.12;76.01;98454.09;4832946;28;103530;-75
2021/06/28 06:15:53;;;;;;;2.60;2.40;;;;;;;23.21;75.48;98454.78;4836692;28;104490;-74
2021/06/28 06:18:22;;;;;;;1.85;1.75;;;;;;;23.53;74.10;98465.81;4832822;28;105768;-74
2021/06/28 06:20:50;;;;;;;1.85;1.60;;;;;;;23.61;73.91;98459.41;4830010;28;103854;-74
2021/06/28 06:23:18;;;;;;;1.70;1.60;;;;;;;23.42;74.07;98460.97;4830388;28;104146;-74
2021/06/28 06:25:47;;;;;;;2.00;1.80;;;;;;;23.62;73.50;98456.53;4829820;28;103507;-75
2021/06/28 06:28:15;;;;;;;3.75;2.65;;;;;;;23.50;73.86;98458.13;4817047;29;107921;-75
2021/06/28 06:30:44;;;;;;;3.00;2.42;;;;;;;23.57;74.81;98455.47;4842658;28;103966;-74
2021/06/28 06:33:12;;;;;;;2.78;2.53;;;;;;;23.51;75.93;98454.41;4833121;28;103700;-76
2021/06/28 06:35:40;;;;;;;3.65;2.50;;;;;;;23.87;74.71;98464.13;4847026;28;104591;-76
2021/06/28 06:38:09;;;;;;;3.88;3.03;;;;;;;23.90;73.83;98455.63;4860895;28;103900;-76
2021/06/28 06:40:37;;;;;;;2.90;2.55;;;;;;;24.10;73.45;98456.56;4849784;28;103751;-76
2021/06/28 06:43:06;;;;;;;5.25;2.70;;;;;;;24.16;72.41;98453.06;4858313;28;103642;-76
2021/06/28 06:45:35;;;;;;;5.78;3.13;;;;;;;23.14;72.98;98446.66;4840358;28;103225;-76
2021/06/28 06:48:05;;;;;;;4.50;2.97;;;;;;;23.65;73.64;98455.31;4853737;28;104943;-76
2021/06/28 06:50:33;;;;;;;2.88;2.63;;;;;;;23.71;72.91;98459.91;4861967;28;111458;-77
2021/06/28 06:53:02;;;;;;;3.10;2.63;;;;;;;23.33;73.32;98472.06;4842054;28;102788;-77
2021/06/28 06:55:30;;;;;;;2.13;2.03;;;;;;;23.97;72.39;98478.09;4866598;28;102729;-78
2021/06/28 06:57:58;;;;;;;4.68;2.60;;;;;;;24.16;71.37;98485.47;4854468;28;105526;-76
2021/06/28 07:00:26;;;;;;;2.60;2.40;;;;;;;24.35;70.24;98478.44;4852302;28;104009;-76
2021/06/28 07:02:55;;;;;;;2.28;1.88;;;;;;;24.41;70.57;98483.03;4837281;28;103171;-76
2021/06/28 07:05:24;;;;;;;2.15;2.00;;;;;;;24.63;68.86;98485.38;4847609;28;103246;-78
2021/06/28 07:07:52;;;;;;;2.05;1.92;;;;;;;24.70;68.55;98483.50;4854169;28;104096;-77
2021/06/28 07:10:20;;;;;;;2.17;2.05;;;;;;;24.24;67.89;98490.66;4859855;28;105105;-75
2021/06/28 07:12:48;;;;;;;3.17;1.60;;;;;;;24.79;67.69;98492.25;4865388;28;102970;-75
2021/06/28 07:15:19;;;;;;;2.45;2.10;;;;;;;24.95;69.38;98491.06;4848671;28;103538;-75
2021/06/28 07:17:48;;;;;;;3.15;2.75;;;;;;;24.68;70.68;98491.00;4857493;28;104885;-75
2021/06/28 07:20:21;;;;;;;3.30;2.53;;;;;;;24.94;68.61;98489.38;4856841;28;104063;-75
2021/06/28 07:22:53;;;;;;;4.22;2.60;;;;;;;24.93;67.31;98495.81;4846720;28;103041;-75
2021/06/28 07:25:22;;;;;;;3.80;2.40;;;;;;;24.94;68.00;98495.63;4859454;28;103369;-76
2021/06/28 07:27:51;;;;;;;2.70;2.30;;;;;;;25.22;66.67;98492.72;4856919;28;103806;-73
2021/06/28 07:30:22;;;;;;;2.50;2.30;;;;;;;25.32;66.83;98498.53;4843428;28;104608;-79
2021/06/28 07:32:50;;;;;;;3.00;2.47;;;;;;;25.34;66.51;98491.06;4851019;28;103771;-76
2021/06/28 07:35:19;;;;;;;1.90;1.80;;;;;;;25.79;66.01;98489.34;4839766;28;103250;-75
2021/06/28 07:37:48;;;;;;;2.30;2.15;;;;;;;26.00;64.59;98491.75;4846770;28;104469;-74
2021/06/28 07:40:19;;;;;;;2.75;2.50;;;;;;;25.98;62.81;98487.59;4851211;28;103309;-74
2021/06/28 07:42:48;;;;;;;2.65;2.10;;;;;;;26.16;63.32;98496.72;4855580;28;105000;-74
2021/06/28 07:45:17;;;;;;;2.47;2.28;;;;;;;26.25;62.88;98492.72;4816452;29;103455;-74
2021/06/28 07:47:47;;;;;;;2.85;2.60;;;;;;;25.27;64.75;98498.31;4851058;28;104895;-74
2021/06/28 07:50:17;;;;;;;2.33;1.88;;;;;;;25.80;63.63;98494.53;4862777;28;110256;-74
2021/06/28 07:52:45;;;;;;;3.78;2.47;;;;;;;25.84;64.41;98501.19;4851470;28;103360;-74
2021/06/28 07:55:14;;;;;;;4.65;2.20;;;;;;;26.35;63.80;98498.53;4851908;28;107881;-74
2021/06/28 07:57:43;;;;;;;2.45;2.25;;;;;;;26.52;61.30;98498.00;4837406;28;104038;-73
2021/06/28 08:00:14;;;;;;;2.72;2.30;;;;;;;26.23;63.53;98497.53;4849944;28;104909;-74
2021/06/28 08:02:42;;;;;;;2.38;2.17;;;;;;;26.30;62.92;98498.31;4843815;28;102913;-77
2021/06/28 08:05:12;;;;;;;2.55;2.35;;;;;;;26.70;60.56;98496.22;4846483;28;103256;-76
2021/06/28 08:07:41;;;;;;;2.65;2.22;;;;;;;26.32;61.88;98493.53;4856072;28;104461;-76
2021/06/28 08:10:12;;;;;;;4.13;2.33;;;;;;;26.35;60.51;98494.97;4853967;28;103706;-77
2021/06/28 08:12:41;;;;;;;2.30;1.90;;;;;;;27.35;58.86;98486.78;4844548;28;103107;-76
2021/06/28 08:15:15;;;;;;;2.45;1.92;;;;;;;26.53;59.52;98492.38;4845711;28;103453;-76
2021/06/28 08:17:43;;;;;;;10.02;2.33;;;;;;;26.32;59.50;98487.28;4844839;28;103993;-76
2021/06/28 08:20:12;;;;;;;2.30;2.10;;;;;;;26.91;60.34;98501.34;4865072;28;103720;-77
2021/06/28 08:22:41;;;;;;;4.20;1.90;;;;;;;27.05;59.57;98486.63;4852545;28;103818;-76
2021/06/28 08:25:10;;;;;;;2.90;2.25;;;;;;;27.39;59.05;98481.75;4852939;28;103255;-76
2021/06/28 08:27:38;;;;;;;3.08;2.28;;;;;;;26.87;59.71;98483.84;4851716;28;103089;-77
2021/06/28 08:30:09;;;;;;;4.53;2.28;;;;;;;27.58;57.60;98475.31;4853032;28;105810;-77
2021/06/28 08:32:39;;;;;;;2.72;1.85;;;;;;;27.65;57.01;98476.06;4852947;28;103396;-77
2021/06/28 08:35:08;;;;;;;2.03;1.83;;;;;;;28.92;54.56;98469.66;4841110;29;103248;-77
2021/06/28 08:37:37;;;;;;;2.45;2.25;;;;;;;27.76;56.53;98478.06;4855233;28;111574;-77
2021/06/28 08:40:07;;;;;;;3.97;2.10;;;;;;;28.49;54.53;98467.16;4859705;28;104714;-77
2021/06/28 08:42:35;;;;;;;2.03;1.80;;;;;;;29.19;56.14;98468.97;4857793;28;102764;-77
2021/06/28 08:45:04;;;;;;;2.15;2.00;;;;;;;28.16;54.77;98468.41;4848746;28;102936;-77
2021/06/28 08:47:32;;;;;;;1.63;1.50;;;;;;;28.73;54.04;98463.47;4856072;28;103470;-76
2021/06/28 08:50:02;;;;;;;1.98;1.88;;;;;;;28.33;54.08;98470.50;4853743;28;104914;-77
2021/06/28 08:52:36;;;;;;;1.75;1.65;;;;;;;29.63;52.06;98464.91;4839820;28;103400;-76
2021/06/28 08:55:04;;;;;;;2.00;1.85;;;;;;;29.55;50.74;98458.97;4858350;28;109486;-77
2021/06/28 08:57:36;;;;;;;2.00;1.90;;;;;;;29.84;49.80;98466.19;4848971;28;104521;-76
2021/06/28 09:00:07;;;;;;;2.47;1.85;;;;;;;29.48;51.11;98478.13;4828983;28;104798;-77
2021/06/28 09:02:35;;;;;;;2.30;1.80;;;;;;;31.24;50.30;98461.81;4851240;28;103225;-77
2021/06/28 09:05:08;;;;;;;1.92;1.83;;;;;;;30.11;50.16;98467.31;4861157;28;103631;-76
2021/06/28 09:07:36;;;;;;;1.85;1.73;;;;;;;29.56;49.10;98474.25;4843208;28;104401;-77
2021/06/28 09:10:05;;;;;;;1.65;1.55;;;;;;;31.10;48.76;98476.88;4857985;28;103750;-77
2021/06/28 09:12:33;;;;;;;4.03;1.50;;;;;;;31.61;47.77;98491.34;4862958;28;103277;-77
2021/06/28 09:15:01;;;;;;;2.10;1.90;;;;;;;29.15;49.60;98495.00;4850343;28;104388;-77
2021/06/28 09:17:33;;;;;;;1.73;1.63;;;;;;;30.83;48.40;98497.63;4849198;28;105750;-76
2021/06/28 09:20:13;;;;;;;1.50;1.40;;;;;;;31.11;48.06;98496.75;4862769;28;103352;-80
2021/06/28 09:22:42;;;;;;;1.70;1.60;;;;;;;30.71;48.09;98497.66;4853274;28;103182;-78
2021/06/28 09:25:29;;;;;;;3.17;1.60;;;;;;;31.86;48.58;98499.91;4843666;28;103057;-77
2021/06/28 09:27:57;;;;;;;2.28;1.60;;;;;;;32.45;44.90;98490.81;4863007;28;104407;-80
2021/06/28 09:30:25;;;;;;;1.83;1.60;;;;;;;31.98;44.23;98486.94;4867332;28;103055;-80
2021/06/28 09:32:56;;;;;;;4.55;1.40;;;;;;;31.96;45.45;98489.09;4865205;28;103199;-77
2021/06/28 09:35:36;;;;;;;1.80;1.40;;;;;;;32.88;45.25;98486.38;4831489;29;103380;-83
2021/06/28 09:38:06;;;;;;;2.05;1.20;;;;;;;33.50;45.22;98479.28;4861893;28;104439;-77
2021/06/28 10:13:22;;;;;;;1.50;1.40;;;;;;;31.31;43.70;98448.00;4758753;29;105827;-75
2021/06/28 10:15:51;;;;;;;1.13;0.95;;;;;;;32.25;42.67;98444.16;4765165;29;104162;-78
2021/06/28 10:18:19;;;;;;;1.48;1.30;;;;;;;31.54;43.48;98447.84;4779845;29;104187;-76
2021/06/28 10:20:47;;;;;;;1.48;1.38;;;;;;;32.40;40.56;98444.31;4762945;29;105775;-76
2021/06/28 10:23:15;;;;;;;1.50;1.40;;;;;;;31.55;42.38;98444.84;4781875;29;103215;-77
2021/06/28 10:25:43;;;;;;;1.50;1.15;;;;;;;33.11;40.83;98442.31;4784631;29;103084;-77
2021/06/28 10:28:11;;;;;;;2.20;1.15;;;;;;;33.80;41.36;98429.34;4813692;29;103322;-76
2021/06/28 10:30:40;;;;;;;1.75;1.33;;;;;;;32.69;39.69;98440.28;4801390;29;106362;-81
2021/06/28 10:33:14;;;;;;;1.40;1.30;;;;;;;32.87;39.04;98432.78;4805996;29;106350;-78
2021/06/28 10:35:45;;;;;;;2.00;1.70;;;;;;;33.00;40.18;98430.44;4811504;29;103454;-77
2021/06/28 10:38:14;;;;;;;1.77;1.50;;;;;;;33.26;39.60;98432.28;4790257;29;104087;-80
2021/06/28 10:40:49;;;;;;;1.75;1.40;;;;;;;33.38;40.71;98428.56;4772148;29;104036;-79
2021/06/28 10:43:26;;;;;;;2.30;1.42;;;;;;;32.67;40.97;98428.75;4789169;29;104249;-79
2021/06/28 10:45:57;;;;;;;1.10;1.08;;;;;;;32.89;42.49;98425.13;4772970;29;103566;-80
2021/06/28 10:48:28;;;;;;;1.55;1.45;;;;;;;33.34;40.99;98422.78;4785030;29;103473;-78
2021/06/28 10:51:00;;;;;;;1.70;1.60;;;;;;;32.90;42.75;98422.13;4783876;29;103588;-80
2021/06/28 10:53:58;;;;;;;3.83;1.40;;;;;;;31.63;42.27;98426.38;4786487;29;103877;-81
2021/06/28 10:56:46;;;;;;;1.50;1.40;;;;;;;32.91;40.56;98412.00;4782217;29;107246;-79
2021/06/28 10:59:26;;;;;;;1.50;1.27;;;;;;;32.13;41.07;98416.13;4792209;29;103177;-79
2021/06/28 11:02:01;;;;;;;1.60;1.50;;;;;;;32.78;39.17;98417.91;4781777;29;104590;-80
2021/06/28 11:04:31;;;;;;;7.15;1.77;;;;;;;33.15;41.89;98408.66;4773132;29;104337;-78
2021/06/28 11:07:20;;;;;;;1.67;1.58;;;;;;;31.96;42.58;98409.88;4788481;29;102994;-78
2021/06/28 11:09:51;;;;;;;4.03;1.73;;;;;;;33.09;39.90;98404.28;4791111;29;104987;-77
2021/06/28 11:12:28;;;;;;;2.63;1.55;;;;;;;32.09;40.33;98404.06;4794342;29;103772;-78
2021/06/28 11:14:59;;;;;;;2.45;1.60;;;;;;;32.01;41.81;98404.50;4799405;29;103334;-77
2021/06/28 11:17:47;;;;;;;4.88;1.73;;;;;;;32.26;42.02;98404.78;4791155;29;103647;-79
2021/06/28 11:20:37;;;;;;;1.50;1.40;;;;;;;31.66;43.96;98395.84;4795071;29;103232;-78
2021/06/28 11:23:17;;;;;;;1.70;1.60;;;;;;;32.31;44.01;98391.19;4793725;29;104219;-78
2021/06/28 11:25:48;;;;;;;1.92;1.83;;;;;;;33.29;41.48;98381.69;4783589;29;103445;-78
2021/06/28 11:28:19;;;;;;;1.65;1.55;;;;;;;32.75;41.34;98380.16;4786059;29;103371;-77
2021/06/28 11:30:54;;;;;;;1.85;1.73;;;;;;;33.10;41.86;98373.06;4793615;29;103537;-78
2021/06/28 11:33:42;;;;;;;1.65;1.55;;;;;;;33.19;41.13;98368.75;4797824;29;104065;-77
2021/06/28 11:36:36;;;;;;;1.63;1.52;;;;;;;33.08;42.48;98369.78;4784909;29;103748;-77
2021/06/28 11:39:25;;;;;;;2.03;1.83;;;;;;;31.40;43.67;98373.63;4792335;29;103097;-77
2021/06/28 11:42:26;;;;;;;2.50;1.95;;;;;;;32.04;42.81;98369.31;4792792;29;105264;-79
2021/06/28 11:45:04;;;;;;;1.75;1.63;;;;;;;33.81;42.53;98357.88;4759776;29;105720;-84
2021/06/28 11:48:01;;;;;;;2.17;1.98;;;;;;;34.38;40.89;98357.78;4779221;29;113915;-81
2021/06/28 11:50:34;;;;;;;1.63;1.52;;;;;;;31.72;42.76;98370.28;4791632;29;102826;-81
2021/06/28 11:53:05;;;;;;;1.73;1.63;;;;;;;31.86;44.88;98366.06;4803420;29;102935;-80
2021/06/28 11:55:35;;;;;;;2.50;1.90;;;;;;;32.93;43.13;98366.09;4798387;29;103783;-87
2021/06/28 11:58:04;;;;;;;1.70;1.60;;;;;;;33.56;41.38;98357.75;4797764;29;104109;-86
2021/06/28 12:00:49;;;;;;;3.83;1.67;;;;;;;32.02;43.09;98360.56;4783003;29;104281;-82
2021/06/28 12:03:24;;;;;;;2.03;1.90;;;;;;;32.49;43.22;98355.28;4796092;29;102953;-77
2021/06/28 12:05:53;;;;;;;2.40;1.88;;;;;;;30.82;45.38;98367.81;4794519;29;113009;-77
2021/06/28 12:08:26;;;;;;;2.22;1.70;;;;;;;32.05;44.26;98353.75;4791153;29;104068;-77
2021/06/28 12:10:56;;;;;;;1.95;1.50;;;;;;;33.26;43.68;98350.16;4790740;29;104538;-76